Time;durP1;ratioP1;P1;durP2;ratioP2;P2;SDS_P1;SDS_P2;PMS_P1;PMS_P2;Temp;Humidity;BMP_temperature;BMP_pressure;BME280_temperature;BME280_humidity;BME280_pressure;Samples;Min_cycle;Max_cycle;Signal;HPM_P1;HPM_P2
2022/12/01 00:07:04;;;;;;;56.27;27.87;;;5.80;99.90;;;;;;2615626;39;20834;-81
2022/12/01 00:12:53;;;;;;;46.50;23.30;;;5.90;99.90;;;;;;2614366;54;20122;-80
2022/12/01 00:18:41;;;;;;;65.90;28.87;;;5.90;99.90;;;;;;2614664;54;20469;-81
2022/12/01 00:24:29;;;;;;;63.57;27.73;;;5.90;99.90;;;;;;2616971;54;20399;-81
2022/12/01 00:30:18;;;;;;;67.37;27.50;;;5.90;99.90;;;;;;2617252;54;20130;-80
2022/12/01 00:36:06;;;;;;;66.33;28.10;;;5.90;99.90;;;;;;2616513;54;20912;-82
2022/12/01 00:41:54;;;;;;;62.07;27.37;;;5.90;99.90;;;;;;2616946;54;20372;-80
2022/12/01 00:47:41;;;;;;;71.80;32.67;;;5.90;99.90;;;;;;2616630;54;20142;-80
2022/12/01 00:53:29;;;;;;;59.50;29.03;;;5.90;99.90;;;;;;2615414;54;20171;-81
2022/12/01 00:59:17;;;;;;;60.27;28.93;;;5.90;99.90;;;;;;2617567;54;20172;-82
2022/12/01 01:05:06;;;;;;;72.87;29.10;;;6.00;99.90;;;;;;2617611;54;20415;-81
2022/12/01 01:10:53;;;;;;;77.20;32.63;;;5.90;99.90;;;;;;2615886;54;20494;-79
2022/12/01 01:20:04;;;;;;;72.93;31.40;;;5.90;99.90;;;;;;2615464;54;20374;-81
2022/12/01 01:25:52;;;;;;;74.27;31.83;;;5.90;99.90;;;;;;2615468;54;20384;-82
2022/12/01 01:31:39;;;;;;;81.77;32.67;;;5.90;99.90;;;;;;2615781;54;20390;-81
2022/12/01 01:37:26;;;;;;;85.80;35.83;;;5.90;99.90;;;;;;2615779;54;20118;-81
2022/12/01 01:49:43;;;;;;;77.10;32.40;;;5.90;99.90;;;;;;2616924;54;20488;-80
2022/12/01 01:55:33;;;;;;;64.90;29.50;;;5.90;99.90;;;;;;2616885;54;20412;-80
2022/12/01 02:01:21;;;;;;;79.77;33.80;;;5.90;99.90;;;;;;2616542;54;20379;-80
2022/12/01 02:07:11;;;;;;;86.63;35.97;;;5.90;99.90;;;;;;2616921;54;20151;-77
2022/12/01 02:29:42;;;;;;;92.10;32.90;;;6.00;99.90;;;;;;2614933;54;20375;-78
2022/12/01 02:45:18;;;;;;;65.73;30.73;;;5.90;99.90;;;;;;2616781;54;20391;-78
2022/12/01 02:51:13;;;;;;;62.37;31.10;;;5.90;99.90;;;;;;2615700;54;20399;-76
2022/12/01 02:57:07;;;;;;;50.87;25.10;;;5.80;99.90;;;;;;2616065;54;20389;-76
2022/12/01 03:25:38;;;;;;;60.43;26.90;;;5.90;99.90;;;;;;2617136;54;20379;-77
2022/12/01 03:31:32;;;;;;;54.27;26.00;;;5.90;99.90;;;;;;2617101;54;20446;-77
2022/12/01 03:44:15;;;;;;;45.50;24.97;;;5.90;99.90;;;;;;2614373;54;20378;-80
2022/12/01 03:50:07;;;;;;;51.53;25.40;;;6.00;99.90;;;;;;2616097;54;20423;-78
2022/12/01 03:56:03;;;;;;;50.97;25.10;;;6.00;99.90;;;;;;2615877;39;20791;-77
2022/12/01 04:01:51;;;;;;;41.43;21.47;;;5.90;99.90;;;;;;2615010;54;20950;-81
2022/12/01 04:07:39;;;;;;;42.53;21.53;;;6.00;99.90;;;;;;2614677;54;20382;-80
2022/12/01 04:13:26;;;;;;;43.53;22.87;;;6.00;99.90;;;;;;2614654;54;20391;-81
2022/12/01 04:15:53;;;;;;;40.13;21.57;;;6.00;99.90;;;;;;2614381;47;20467;-81
2022/12/01 04:18:19;;;;;;;39.73;22.57;;;5.90;99.90;;;;;;2614437;39;20698;-80
2022/12/01 04:24:06;;;;;;;43.13;22.00;;;5.90;99.90;;;;;;2614152;54;20442;-80
2022/12/01 04:29:53;;;;;;;41.20;24.17;;;5.90;99.90;;;;;;2615074;54;20444;-80
2022/12/01 04:35:40;;;;;;;37.50;21.30;;;5.90;99.90;;;;;;2617511;39;20626;-81
2022/12/01 04:41:27;;;;;;;52.83;21.13;;;5.90;99.90;;;;;;2616825;54;20281;-80
2022/12/01 04:47:14;;;;;;;42.23;23.40;;;6.00;99.90;;;;;;2615595;54;20163;-81
2022/12/01 04:53:03;;;;;;;38.17;22.80;;;5.90;99.90;;;;;;2617695;54;20157;-82
2022/12/01 04:58:51;;;;;;;44.90;22.67;;;5.90;99.90;;;;;;2618633;54;20391;-82
2022/12/01 05:04:40;;;;;;;36.73;21.30;;;5.90;99.90;;;;;;2618587;54;20142;-80
2022/12/01 05:10:28;;;;;;;42.03;22.63;;;6.00;99.90;;;;;;2618562;54;20386;-81
2022/12/01 05:16:21;;;;;;;37.50;21.33;;;5.90;99.90;;;;;;2618179;54;20912;-81
2022/12/01 05:22:09;;;;;;;38.53;21.57;;;6.00;99.90;;;;;;2618648;54;20374;-80
2022/12/01 05:27:56;;;;;;;41.23;20.50;;;6.00;99.90;;;;;;2618492;54;20294;-83
2022/12/01 05:31:12;;;;;;;36.20;21.30;;;5.90;99.90;;;;;;2617718;54;20398;-82
2022/12/01 05:37:00;;;;;;;30.23;19.13;;;6.00;99.90;;;;;;2618378;54;20410;-82
2022/12/01 05:42:47;;;;;;;37.33;21.17;;;5.90;99.90;;;;;;2617589;54;20122;-82
2022/12/01 05:48:35;;;;;;;40.40;22.97;;;5.90;99.90;;;;;;2618041;39;20464;-81
2022/12/01 05:54:23;;;;;;;43.43;21.40;;;5.90;99.90;;;;;;2616641;54;20130;-81
2022/12/01 06:00:13;;;;;;;49.40;23.93;;;5.90;99.90;;;;;;2616256;54;20143;-82
2022/12/01 06:06:00;;;;;;;43.83;21.93;;;5.90;99.90;;;;;;2617323;54;20391;-81
2022/12/01 06:11:48;;;;;;;42.07;21.80;;;5.80;99.90;;;;;;2616283;54;20413;-81
2022/12/01 06:17:35;;;;;;;41.47;23.57;;;5.90;99.90;;;;;;2615848;54;20217;-81
2022/12/01 06:23:22;;;;;;;46.37;24.90;;;5.80;99.90;;;;;;2614710;54;20126;-82
2022/12/01 06:29:23;;;;;;;50.63;25.40;;;5.80;99.90;;;;;;2613412;54;20131;-81
2022/12/01 06:35:10;;;;;;;50.57;26.00;;;5.70;99.90;;;;;;2614009;54;20134;-82
2022/12/01 06:40:58;;;;;;;66.03;30.60;;;5.70;99.90;;;;;;2613931;54;20188;-82
2022/12/01 06:46:45;;;;;;;68.00;31.10;;;5.70;99.90;;;;;;2613409;54;20437;-81
2022/12/01 06:52:33;;;;;;;72.83;32.00;;;5.70;99.90;;;;;;2613956;54;20138;-81
2022/12/01 06:58:20;;;;;;;68.77;29.97;;;5.70;99.90;;;;;;2614231;54;20401;-82
2022/12/01 07:04:08;;;;;;;74.30;32.37;;;5.70;99.90;;;;;;2610709;54;20176;-81
2022/12/01 07:09:55;;;;;;;72.90;30.80;;;5.70;99.90;;;;;;2612279;54;20133;-82
2022/12/01 07:15:42;;;;;;;63.47;28.50;;;5.70;99.90;;;;;;2615103;46;20189;-82
2022/12/01 07:21:29;;;;;;;59.47;27.93;;;5.70;99.90;;;;;;2615137;54;20122;-82
2022/12/01 07:31:16;;;;;;;58.30;30.97;;;5.80;99.90;;;;;;2615828;54;20916;-82
2022/12/01 07:37:03;;;;;;;62.60;30.07;;;5.80;99.90;;;;;;2614715;54;20403;-82
2022/12/01 07:42:50;;;;;;;59.90;28.77;;;5.80;99.90;;;;;;2614433;54;20126;-81
2022/12/01 07:48:39;;;;;;;65.50;31.07;;;5.70;99.90;;;;;;2615637;54;20134;-80
2022/12/01 07:54:26;;;;;;;59.77;28.03;;;5.70;99.90;;;;;;2616571;54;20379;-81
2022/12/01 08:00:15;;;;;;;67.80;28.40;;;5.70;99.90;;;;;;2615337;54;21184;-84
2022/12/01 08:06:04;;;;;;;73.80;29.17;;;5.80;99.90;;;;;;2614979;54;20818;-81
2022/12/01 08:11:52;;;;;;;52.23;30.77;;;5.70;99.90;;;;;;2614690;54;20395;-80
2022/12/01 08:17:40;;;;;;;53.13;26.83;;;5.70;99.90;;;;;;2616160;39;20681;-80
2022/12/01 08:23:28;;;;;;;67.83;32.20;;;5.70;99.90;;;;;;2615776;54;20134;-81
2022/12/01 08:29:06;;;;;;;65.67;28.13;;;5.60;99.90;;;;;;2615361;54;20178;-82
2022/12/01 08:34:53;;;;;;;55.00;28.10;;;5.70;99.90;;;;;;2616020;54;20247;-81
2022/12/01 08:40:41;;;;;;;53.83;26.10;;;5.70;99.90;;;;;;2615706;39;20518;-83
2022/12/01 08:46:35;;;;;;;61.13;28.87;;;5.70;99.90;;;;;;2616517;54;20158;-82
2022/12/01 08:52:22;;;;;;;51.73;25.90;;;5.70;99.90;;;;;;2616964;54;20424;-81
2022/12/01 08:55:15;;;;;;;50.17;26.33;;;5.70;99.90;;;;;;2615828;54;21079;-81
2022/12/01 08:57:40;;;;;;;61.90;27.70;;;5.80;99.90;;;;;;2616420;47;20657;-82
2022/12/01 09:03:29;;;;;;;60.37;26.13;;;5.70;99.90;;;;;;2616934;39;20548;-81
2022/12/01 09:09:27;;;;;;;59.27;25.80;;;5.70;99.90;;;;;;2614997;54;20920;-85
2022/12/01 09:15:14;;;;;;;48.07;23.00;;;5.60;99.90;;;;;;2617063;39;20768;-81
2022/12/01 09:31:22;;;;;;;41.97;24.23;;;5.70;99.90;;;;;;2616194;31;20930;-82
2022/12/01 09:37:09;;;;;;;35.80;22.23;;;5.70;99.90;;;;;;2614584;54;20514;-82
2022/12/01 09:42:59;;;;;;;45.23;21.80;;;5.80;99.90;;;;;;2614956;54;20146;-82
2022/12/01 09:48:48;;;;;;;44.30;21.40;;;5.80;99.90;;;;;;2612186;54;21154;-82
2022/12/01 09:54:35;;;;;;;41.53;21.33;;;5.90;99.90;;;;;;2616240;39;20780;-82
2022/12/01 10:04:10;;;;;;;35.47;20.27;;;5.70;99.90;;;;;;2613244;54;20398;-81
2022/12/01 10:35:36;;;;;;;36.90;22.00;;;6.10;99.90;;;;;;2614016;54;20420;-81
2022/12/01 10:41:26;;;;;;;32.20;20.67;;;6.20;99.90;;;;;;2616183;54;20387;-82
2022/12/01 10:53:35;;;;;;;35.30;21.27;;;6.30;99.90;;;;;;2616445;54;20382;-82
2022/12/01 10:56:08;;;;;;;32.33;20.43;;;6.20;99.90;;;;;;2615998;54;21007;-80
2022/12/01 11:11:44;;;;;;;38.43;24.20;;;6.20;99.90;;;;;;2618193;54;20394;-80
2022/12/01 11:17:40;;;;;;;44.77;25.13;;;6.20;99.90;;;;;;2618036;54;20460;-81
2022/12/01 11:23:28;;;;;;;48.83;28.73;;;6.30;99.90;;;;;;2616752;54;20391;-80
2022/12/01 11:26:49;;;;;;;50.23;29.37;;;6.30;99.90;;;;;;2616886;47;20403;-80
2022/12/01 11:35:56;;;;;;;46.47;29.90;;;6.30;99.90;;;;;;2616797;54;20394;-80
2022/12/01 11:41:44;;;;;;;49.57;30.23;;;6.20;99.90;;;;;;2616205;54;20409;-80
2022/12/01 11:47:34;;;;;;;60.40;32.90;;;6.30;99.90;;;;;;2616839;54;20230;-80
2022/12/01 11:53:34;;;;;;;62.00;33.07;;;6.30;99.90;;;;;;2617749;54;20375;-80
2022/12/01 11:59:27;;;;;;;55.80;33.00;;;6.40;99.90;;;;;;2617878;54;20384;-80
2022/12/01 12:05:20;;;;;;;58.10;33.70;;;6.50;99.90;;;;;;2616656;54;21438;-81
2022/12/01 12:21:31;;;;;;;64.97;39.23;;;6.40;99.90;;;;;;2615049;54;20385;-82
2022/12/01 12:37:12;;;;;;;65.83;38.23;;;6.50;99.90;;;;;;2615909;54;20374;-82
2022/12/01 12:56:14;;;;;;;63.63;36.30;;;6.40;99.90;;;;;;2615938;54;20421;-82
2022/12/01 13:02:14;;;;;;;63.53;37.50;;;6.50;99.90;;;;;;2617123;54;20768;-82
2022/12/01 13:08:12;;;;;;;70.37;36.93;;;6.40;99.90;;;;;;2617359;46;20398;-81
2022/12/01 13:20:46;;;;;;;64.97;39.17;;;6.40;99.90;;;;;;2617792;54;20383;-83
2022/12/01 13:26:36;;;;;;;67.30;39.07;;;6.50;99.90;;;;;;2617158;54;20395;-81
2022/12/01 13:32:39;;;;;;;78.57;40.40;;;6.40;99.90;;;;;;2615960;54;20379;-81
2022/12/01 13:52:47;;;;;;;66.23;40.83;;;6.50;99.90;;;;;;2615693;54;21103;-82
2022/12/01 13:58:34;;;;;;;63.57;39.70;;;6.70;99.90;;;;;;2614505;54;20386;-81
2022/12/01 14:04:26;;;;;;;72.77;41.17;;;6.60;99.90;;;;;;2614824;54;20715;-81
2022/12/01 14:16:53;;;;;;;71.53;41.27;;;6.40;99.90;;;;;;2616056;54;20379;-82
2022/12/01 14:22:44;;;;;;;64.60;41.07;;;6.40;99.90;;;;;;2616824;54;20375;-81
2022/12/01 14:35:16;;;;;;;66.07;38.73;;;6.30;99.90;;;;;;2615144;54;20415;-81
2022/12/01 14:41:09;;;;;;;66.20;39.20;;;6.20;99.90;;;;;;2616759;54;20161;-83
2022/12/01 14:47:12;;;;;;;60.80;38.00;;;6.10;99.90;;;;;;2617154;54;20939;-85
2022/12/01 14:59:31;;;;;;;64.33;35.67;;;6.10;99.90;;;;;;2615541;54;21069;-82
2022/12/01 15:05:24;;;;;;;63.90;38.20;;;6.00;99.90;;;;;;2616650;54;20762;-82
2022/12/01 15:17:46;;;;;;;58.53;37.57;;;5.90;99.90;;;;;;2616317;54;20943;-82
2022/12/01 15:23:34;;;;;;;63.43;37.00;;;5.80;99.90;;;;;;2615246;54;20407;-83
2022/12/01 15:33:14;;;;;;;62.37;38.47;;;5.80;99.90;;;;;;2617298;54;20406;-81
2022/12/01 15:39:02;;;;;;;63.00;38.77;;;5.80;99.90;;;;;;2616706;39;20875;-79
2022/12/01 15:54:49;;;;;;;64.97;40.40;;;5.70;99.90;;;;;;2620845;54;20514;-80
2022/12/01 16:00:36;;;;;;;74.33;39.60;;;5.70;99.90;;;;;;2621200;54;20374;-78
2022/12/01 16:06:29;;;;;;;70.93;39.00;;;5.70;99.90;;;;;;2619663;54;20150;-79
2022/12/01 16:12:20;;;;;;;85.63;39.20;;;5.60;99.90;;;;;;2619528;47;20531;-78
2022/12/01 16:24:54;;;;;;;65.60;37.23;;;5.50;99.90;;;;;;2619868;54;20399;-80
2022/12/01 16:30:42;;;;;;;62.83;41.37;;;5.60;99.90;;;;;;2620376;54;20438;-80
2022/12/01 16:36:30;;;;;;;61.63;37.00;;;5.50;99.90;;;;;;2619235;54;20118;-79
2022/12/01 16:42:20;;;;;;;68.17;40.60;;;5.50;99.90;;;;;;2621886;54;21181;-78
2022/12/01 16:48:08;;;;;;;59.30;36.10;;;5.50;99.90;;;;;;2619788;54;21067;-79
2022/12/01 16:53:58;;;;;;;63.10;36.83;;;5.50;99.90;;;;;;2619230;54;20170;-77
2022/12/01 16:59:46;;;;;;;66.00;37.93;;;5.50;99.90;;;;;;2619477;54;20411;-78
2022/12/01 17:05:34;;;;;;;67.13;39.63;;;5.50;99.90;;;;;;2619809;54;20130;-80
2022/12/01 17:11:22;;;;;;;71.83;40.73;;;5.50;99.90;;;;;;2619286;54;20117;-79
2022/12/01 17:17:09;;;;;;;83.13;38.67;;;5.50;99.90;;;;;;2616803;54;20235;-78
2022/12/01 17:22:57;;;;;;;55.80;33.47;;;5.30;99.90;;;;;;2616314;54;20179;-78
2022/12/01 17:28:45;;;;;;;60.53;33.07;;;5.30;99.90;;;;;;2616849;39;20824;-79
2022/12/01 17:34:34;;;;;;;53.17;32.20;;;5.30;99.90;;;;;;2615581;54;21130;-79
2022/12/01 17:40:22;;;;;;;55.90;33.20;;;5.20;99.90;;;;;;2616965;54;20387;-79
2022/12/01 17:46:11;;;;;;;51.03;33.07;;;5.20;99.90;;;;;;2616860;54;20150;-80
2022/12/01 17:51:59;;;;;;;67.90;34.00;;;5.20;99.90;;;;;;2618200;31;20840;-79
2022/12/01 17:57:47;;;;;;;51.83;30.97;;;5.10;99.90;;;;;;2617118;54;20155;-80
2022/12/01 18:03:34;;;;;;;54.20;31.20;;;5.10;99.90;;;;;;2617326;54;20161;-79
2022/12/01 18:09:22;;;;;;;54.50;32.87;;;5.10;99.90;;;;;;2617394;54;20139;-78
2022/12/01 18:15:11;;;;;;;58.47;32.80;;;5.10;99.90;;;;;;2617322;54;20675;-80
2022/12/01 18:18:14;;;;;;;57.73;34.13;;;5.10;99.90;;;;;;2616816;46;20966;-79
2022/12/01 18:20:44;;;;;;;57.80;35.70;;;5.10;99.90;;;;;;2617471;54;20491;-79
2022/12/01 18:26:32;;;;;;;54.83;34.03;;;5.10;99.90;;;;;;2616985;54;20374;-81
2022/12/01 18:29:27;;;;;;;56.77;35.37;;;5.00;99.90;;;;;;2616837;47;20474;-79
2022/12/01 18:31:57;;;;;;;59.03;32.83;;;4.90;99.90;;;;;;2617607;39;20835;-79
2022/12/01 18:37:45;;;;;;;53.23;32.40;;;5.00;99.90;;;;;;2616520;54;20358;-81
2022/12/01 18:43:33;;;;;;;58.27;33.50;;;4.90;99.90;;;;;;2616916;54;20162;-79
2022/12/01 18:49:21;;;;;;;67.07;35.97;;;4.90;99.90;;;;;;2618835;39;20729;-80
2022/12/01 18:55:08;;;;;;;57.13;32.47;;;4.90;99.90;;;;;;2617656;54;20147;-80
2022/12/01 19:00:57;;;;;;;62.83;33.93;;;4.80;99.90;;;;;;2616581;54;21211;-79
2022/12/01 19:06:45;;;;;;;58.60;33.37;;;4.90;99.90;;;;;;2617235;54;20366;-80
2022/12/01 19:12:33;;;;;;;57.40;33.90;;;4.90;99.90;;;;;;2618739;54;20374;-79
2022/12/01 19:18:21;;;;;;;74.57;35.30;;;4.90;99.90;;;;;;2617651;54;20122;-78
2022/12/01 19:24:09;;;;;;;64.93;34.37;;;4.90;99.90;;;;;;2618388;54;20378;-81
2022/12/01 19:33:56;;;;;;;64.40;33.50;;;4.90;99.90;;;;;;2617047;54;20953;-79
2022/12/01 19:39:44;;;;;;;55.73;32.10;;;4.80;99.90;;;;;;2617748;54;20435;-79
2022/12/01 19:45:35;;;;;;;50.00;29.37;;;4.80;99.90;;;;;;2618182;54;20159;-81
2022/12/01 19:51:25;;;;;;;50.60;29.50;;;4.70;99.90;;;;;;2617431;54;20399;-80
2022/12/01 19:57:13;;;;;;;52.17;27.60;;;4.70;99.90;;;;;;2619001;54;20407;-79
2022/12/01 20:03:01;;;;;;;43.50;26.63;;;4.80;99.90;;;;;;2618667;54;21145;-82
2022/12/01 20:08:50;;;;;;;41.97;24.20;;;4.70;99.90;;;;;;2617865;54;20203;-79
2022/12/01 20:14:38;;;;;;;44.03;28.50;;;4.80;99.90;;;;;;2618191;54;20395;-80
2022/12/01 20:20:26;;;;;;;46.23;25.40;;;4.70;99.90;;;;;;2618244;54;20139;-80
2022/12/01 20:26:16;;;;;;;42.93;25.60;;;4.60;99.90;;;;;;2617728;54;20406;-80
2022/12/01 20:29:25;;;;;;;40.40;24.43;;;4.60;99.90;;;;;;2615684;47;20408;-80
2022/12/01 20:35:15;;;;;;;36.40;23.60;;;4.60;99.90;;;;;;2615605;54;20953;-83
2022/12/01 20:41:03;;;;;;;35.13;21.60;;;4.60;99.90;;;;;;2616305;54;20459;-80
2022/12/01 20:46:52;;;;;;;38.50;23.63;;;4.70;99.90;;;;;;2615944;54;20404;-78
2022/12/01 20:52:40;;;;;;;49.57;28.07;;;4.60;99.90;;;;;;2616198;54;20386;-79
2022/12/01 21:01:49;;;;;;;52.00;25.30;;;4.60;99.90;;;;;;2616015;39;20734;-84
2022/12/01 21:07:36;;;;;;;49.93;27.43;;;4.70;99.90;;;;;;2616567;54;20134;-84
2022/12/01 21:26:15;;;;;;;59.30;34.50;;;4.50;99.90;;;;;;2616943;39;20861;-86
2022/12/01 21:29:25;;;;;;;59.27;34.10;;;4.60;99.90;;;;;;2616236;47;20404;-85
2022/12/01 21:31:55;;;;;;;65.33;36.23;;;4.50;99.90;;;;;;2617268;47;20446;-84
2022/12/01 21:37:43;;;;;;;64.90;31.60;;;4.50;99.90;;;;;;2615257;54;20363;-81
2022/12/01 21:43:31;;;;;;;80.20;37.00;;;4.50;99.90;;;;;;2617460;46;20998;-84
2022/12/01 21:55:34;;;;;;;60.93;32.37;;;4.50;99.90;;;;;;2617466;54;20366;-80
2022/12/01 22:01:26;;;;;;;54.73;31.40;;;4.50;99.90;;;;;;2617455;54;20400;-80
2022/12/01 22:07:14;;;;;;;49.23;28.87;;;4.40;99.90;;;;;;2617680;54;20370;-80
2022/12/01 22:13:08;;;;;;;58.57;31.80;;;4.30;99.90;;;;;;2617636;54;20118;-80
2022/12/01 22:18:58;;;;;;;54.60;29.60;;;4.30;99.90;;;;;;2617023;54;20375;-80
2022/12/01 22:24:49;;;;;;;59.67;32.00;;;4.30;99.90;;;;;;2616370;54;20428;-79
2022/12/01 22:34:09;;;;;;;59.47;31.50;;;4.30;99.90;;;;;;2617627;54;20423;-80
2022/12/01 22:39:57;;;;;;;56.90;34.43;;;4.20;99.90;;;;;;2615952;54;20415;-79
2022/12/01 22:49:29;;;;;;;75.30;36.13;;;4.20;99.90;;;;;;2617014;54;20454;-79
2022/12/01 22:55:18;;;;;;;66.23;34.27;;;4.00;99.90;;;;;;2616778;54;20403;-79
2022/12/01 23:10:57;;;;;;;82.13;38.30;;;4.00;99.90;;;;;;2616828;54;20370;-79
2022/12/01 23:16:44;;;;;;;78.93;37.93;;;4.00;99.90;;;;;;2616481;54;20386;-80
2022/12/01 23:22:31;;;;;;;77.03;39.77;;;4.00;99.90;;;;;;2616591;54;20947;-80
2022/12/01 23:28:20;;;;;;;76.70;38.10;;;4.00;99.90;;;;;;2616548;54;20142;-79
2022/12/01 23:37:37;;;;;;;92.47;42.67;;;3.90;99.90;;;;;;2617796;54;20403;-80
2022/12/01 23:49:39;;;;;;;72.67;35.67;;;3.80;99.90;;;;;;2618130;54;20945;-79
2022/12/01 23:55:29;;;;;;;61.20;34.27;;;3.90;99.90;;;;;;2618319;54;20680;-79
